sensor_id;sensor_type;location;lat;lon;timestamp;P1;durP1;ratioP1;P2;durP2;ratioP2
46365;SDS011;32073;49.166;8.076;2022-08-19T00:01:16;13.30;;;11.85;;
46365;SDS011;32073;49.166;8.076;2022-08-19T00:05:17;12.93;;;11.30;;
46365;SDS011;32073;49.166;8.076;2022-08-19T00:09:19;12.73;;;11.18;;
46365;SDS011;32073;49.166;8.076;2022-08-19T00:13:22;13.02;;;11.60;;
46365;SDS011;32073;49.166;8.076;2022-08-19T00:17:23;15.00;;;12.07;;
46365;SDS011;32073;49.166;8.076;2022-08-19T00:21:24;12.52;;;10.23;;
46365;SDS011;32073;49.166;8.076;2022-08-19T00:25:30;14.27;;;10.13;;
46365;SDS011;32073;49.166;8.076;2022-08-19T00:29:30;14.00;;;11.27;;
46365;SDS011;32073;49.166;8.076;2022-08-19T00:33:31;13.38;;;11.40;;
46365;SDS011;32073;49.166;8.076;2022-08-19T00:37:33;13.52;;;11.80;;
46365;SDS011;32073;49.166;8.076;2022-08-19T00:41:35;16.08;;;11.90;;
46365;SDS011;32073;49.166;8.076;2022-08-19T00:45:36;13.70;;;10.82;;
46365;SDS011;32073;49.166;8.076;2022-08-19T00:49:44;13.65;;;11.55;;
46365;SDS011;32073;49.166;8.076;2022-08-19T00:53:51;13.02;;;10.55;;
46365;SDS011;32073;49.166;8.076;2022-08-19T00:57:57;12.95;;;10.75;;
46365;SDS011;32073;49.166;8.076;2022-08-19T01:02:03;14.68;;;11.30;;
46365;SDS011;32073;49.166;8.076;2022-08-19T01:06:04;12.07;;;10.80;;
46365;SDS011;32073;49.166;8.076;2022-08-19T01:10:08;13.15;;;11.48;;
46365;SDS011;32073;49.166;8.076;2022-08-19T01:14:12;16.05;;;12.45;;
46365;SDS011;32073;49.166;8.076;2022-08-19T01:18:15;13.32;;;11.93;;
46365;SDS011;32073;49.166;8.076;2022-08-19T01:26:28;13.77;;;11.23;;
46365;SDS011;32073;49.166;8.076;2022-08-19T01:30:31;14.00;;;11.70;;
46365;SDS011;32073;49.166;8.076;2022-08-19T01:34:34;14.05;;;11.13;;
46365;SDS011;32073;49.166;8.076;2022-08-19T01:38:36;13.90;;;11.35;;
46365;SDS011;32073;49.166;8.076;2022-08-19T01:42:39;13.15;;;10.95;;
46365;SDS011;32073;49.166;8.076;2022-08-19T01:46:40;13.10;;;10.38;;
46365;SDS011;32073;49.166;8.076;2022-08-19T01:50:42;10.23;;;9.13;;
46365;SDS011;32073;49.166;8.076;2022-08-19T01:54:43;11.82;;;10.43;;
46365;SDS011;32073;49.166;8.076;2022-08-19T01:58:54;10.82;;;9.65;;
46365;SDS011;32073;49.166;8.076;2022-08-19T02:03:00;10.10;;;9.07;;
46365;SDS011;32073;49.166;8.076;2022-08-19T02:07:01;10.73;;;9.55;;
46365;SDS011;32073;49.166;8.076;2022-08-19T02:11:02;12.43;;;10.40;;
46365;SDS011;32073;49.166;8.076;2022-08-19T02:15:04;14.48;;;11.38;;
46365;SDS011;32073;49.166;8.076;2022-08-19T02:19:07;14.27;;;11.43;;
46365;SDS011;32073;49.166;8.076;2022-08-19T02:23:08;12.95;;;11.52;;
46365;SDS011;32073;49.166;8.076;2022-08-19T02:27:11;11.40;;;10.05;;
46365;SDS011;32073;49.166;8.076;2022-08-19T02:31:13;13.95;;;11.43;;
46365;SDS011;32073;49.166;8.076;2022-08-19T02:35:18;14.52;;;11.93;;
46365;SDS011;32073;49.166;8.076;2022-08-19T02:39:19;12.95;;;11.65;;
46365;SDS011;32073;49.166;8.076;2022-08-19T02:43:19;13.45;;;11.80;;
46365;SDS011;32073;49.166;8.076;2022-08-19T02:47:21;17.10;;;13.20;;
46365;SDS011;32073;49.166;8.076;2022-08-19T02:51:23;13.10;;;10.80;;
46365;SDS011;32073;49.166;8.076;2022-08-19T02:55:28;13.25;;;11.75;;
46365;SDS011;32073;49.166;8.076;2022-08-19T02:59:32;12.80;;;11.30;;
46365;SDS011;32073;49.166;8.076;2022-08-19T03:03:33;14.90;;;11.77;;
46365;SDS011;32073;49.166;8.076;2022-08-19T03:07:34;13.75;;;12.25;;
46365;SDS011;32073;49.166;8.076;2022-08-19T03:11:36;13.75;;;12.25;;
46365;SDS011;32073;49.166;8.076;2022-08-19T03:15:42;14.60;;;13.07;;
46365;SDS011;32073;49.166;8.076;2022-08-19T03:19:44;15.02;;;12.38;;
46365;SDS011;32073;49.166;8.076;2022-08-19T03:23:45;17.55;;;12.15;;
46365;SDS011;32073;49.166;8.076;2022-08-19T03:27:46;14.25;;;11.77;;
46365;SDS011;32073;49.166;8.076;2022-08-19T03:31:48;14.50;;;11.93;;
46365;SDS011;32073;49.166;8.076;2022-08-19T03:36:08;14.55;;;11.73;;
46365;SDS011;32073;49.166;8.076;2022-08-19T03:40:11;13.52;;;11.40;;
46365;SDS011;32073;49.166;8.076;2022-08-19T03:44:12;12.50;;;10.60;;
46365;SDS011;32073;49.166;8.076;2022-08-19T03:48:14;14.35;;;11.30;;
46365;SDS011;32073;49.166;8.076;2022-08-19T03:52:17;13.80;;;11.30;;
46365;SDS011;32073;49.166;8.076;2022-08-19T03:56:18;12.48;;;10.77;;
46365;SDS011;32073;49.166;8.076;2022-08-19T04:00:19;12.27;;;10.70;;
46365;SDS011;32073;49.166;8.076;2022-08-19T04:04:20;12.88;;;10.70;;
46365;SDS011;32073;49.166;8.076;2022-08-19T04:08:21;12.77;;;10.93;;
46365;SDS011;32073;49.166;8.076;2022-08-19T04:12:22;11.35;;;10.15;;
46365;SDS011;32073;49.166;8.076;2022-08-19T04:16:24;10.68;;;9.32;;
46365;SDS011;32073;49.166;8.076;2022-08-19T04:20:31;13.30;;;11.00;;
46365;SDS011;32073;49.166;8.076;2022-08-19T04:24:33;14.07;;;11.27;;
46365;SDS011;32073;49.166;8.076;2022-08-19T04:28:35;13.77;;;10.73;;
46365;SDS011;32073;49.166;8.076;2022-08-19T04:32:36;16.98;;;11.13;;
46365;SDS011;32073;49.166;8.076;2022-08-19T04:36:38;12.48;;;10.63;;
46365;SDS011;32073;49.166;8.076;2022-08-19T04:40:41;10.18;;;9.05;;
46365;SDS011;32073;49.166;8.076;2022-08-19T04:45:07;10.32;;;9.30;;
46365;SDS011;32073;49.166;8.076;2022-08-19T04:49:12;11.05;;;9.80;;
46365;SDS011;32073;49.166;8.076;2022-08-19T04:53:14;10.18;;;9.18;;
46365;SDS011;32073;49.166;8.076;2022-08-19T04:57:15;10.93;;;9.80;;
46365;SDS011;32073;49.166;8.076;2022-08-19T05:01:23;11.68;;;9.68;;
46365;SDS011;32073;49.166;8.076;2022-08-19T05:05:28;10.88;;;8.50;;
46365;SDS011;32073;49.166;8.076;2022-08-19T05:09:29;11.65;;;9.57;;
46365;SDS011;32073;49.166;8.076;2022-08-19T05:13:30;11.05;;;9.52;;
46365;SDS011;32073;49.166;8.076;2022-08-19T05:17:31;8.75;;;7.85;;
46365;SDS011;32073;49.166;8.076;2022-08-19T05:21:32;9.18;;;8.00;;
46365;SDS011;32073;49.166;8.076;2022-08-19T05:25:53;10.27;;;8.48;;
46365;SDS011;32073;49.166;8.076;2022-08-19T05:29:53;8.82;;;7.82;;
46365;SDS011;32073;49.166;8.076;2022-08-19T05:33:54;10.98;;;8.20;;
46365;SDS011;32073;49.166;8.076;2022-08-19T05:37:55;9.40;;;8.40;;
46365;SDS011;32073;49.166;8.076;2022-08-19T05:41:57;9.82;;;7.75;;
46365;SDS011;32073;49.166;8.076;2022-08-19T05:46:01;8.93;;;7.43;;
46365;SDS011;32073;49.166;8.076;2022-08-19T05:50:04;10.68;;;7.70;;
46365;SDS011;32073;49.166;8.076;2022-08-19T05:54:05;8.43;;;7.45;;
46365;SDS011;32073;49.166;8.076;2022-08-19T05:58:07;8.88;;;7.55;;
46365;SDS011;32073;49.166;8.076;2022-08-19T06:02:08;7.72;;;6.93;;
46365;SDS011;32073;49.166;8.076;2022-08-19T06:06:09;8.57;;;7.15;;
46365;SDS011;32073;49.166;8.076;2022-08-19T06:10:15;7.75;;;6.88;;
46365;SDS011;32073;49.166;8.076;2022-08-19T06:14:17;8.80;;;6.90;;
46365;SDS011;32073;49.166;8.076;2022-08-19T06:18:20;8.38;;;7.38;;
46365;SDS011;32073;49.166;8.076;2022-08-19T06:22:21;8.85;;;7.65;;
46365;SDS011;32073;49.166;8.076;2022-08-19T06:26:23;9.40;;;7.65;;
46365;SDS011;32073;49.166;8.076;2022-08-19T06:30:24;9.13;;;6.80;;
46365;SDS011;32073;49.166;8.076;2022-08-19T06:34:27;7.38;;;6.38;;
46365;SDS011;32073;49.166;8.076;2022-08-19T06:38:30;7.97;;;6.63;;
46365;SDS011;32073;49.166;8.076;2022-08-19T06:42:33;6.97;;;6.28;;
46365;SDS011;32073;49.166;8.076;2022-08-19T06:46:35;8.60;;;6.65;;
46365;SDS011;32073;49.166;8.076;2022-08-19T06:50:37;6.95;;;6.25;;
46365;SDS011;32073;49.166;8.076;2022-08-19T06:54:38;8.38;;;6.45;;
46365;SDS011;32073;49.166;8.076;2022-08-19T06:58:41;8.10;;;7.07;;
46365;SDS011;32073;49.166;8.076;2022-08-19T07:02:43;6.97;;;6.28;;
46365;SDS011;32073;49.166;8.076;2022-08-19T07:06:44;7.35;;;6.28;;
46365;SDS011;32073;49.166;8.076;2022-08-19T07:10:46;9.45;;;6.38;;
46365;SDS011;32073;49.166;8.076;2022-08-19T07:14:47;7.75;;;6.70;;
46365;SDS011;32073;49.166;8.076;2022-08-19T07:18:49;8.98;;;6.30;;
46365;SDS011;32073;49.166;8.076;2022-08-19T07:22:51;6.93;;;6.22;;
46365;SDS011;32073;49.166;8.076;2022-08-19T07:26:53;6.55;;;5.85;;
46365;SDS011;32073;49.166;8.076;2022-08-19T07:31:00;6.03;;;5.35;;
46365;SDS011;32073;49.166;8.076;2022-08-19T07:35:01;8.50;;;6.60;;
46365;SDS011;32073;49.166;8.076;2022-08-19T07:39:05;9.68;;;7.00;;
46365;SDS011;32073;49.166;8.076;2022-08-19T07:43:12;7.38;;;6.45;;
46365;SDS011;32073;49.166;8.076;2022-08-19T07:47:12;7.40;;;6.63;;
46365;SDS011;32073;49.166;8.076;2022-08-19T07:51:18;8.50;;;6.95;;
46365;SDS011;32073;49.166;8.076;2022-08-19T07:55:22;7.90;;;5.93;;
46365;SDS011;32073;49.166;8.076;2022-08-19T07:59:25;7.05;;;6.35;;
46365;SDS011;32073;49.166;8.076;2022-08-19T08:03:26;6.80;;;5.32;;
46365;SDS011;32073;49.166;8.076;2022-08-19T08:07:47;7.10;;;6.28;;
46365;SDS011;32073;49.166;8.076;2022-08-19T08:12:11;7.30;;;5.78;;
46365;SDS011;32073;49.166;8.076;2022-08-19T08:16:16;7.00;;;5.45;;
46365;SDS011;32073;49.166;8.076;2022-08-19T08:20:17;6.90;;;5.68;;
46365;SDS011;32073;49.166;8.076;2022-08-19T08:24:19;6.05;;;5.45;;
46365;SDS011;32073;49.166;8.076;2022-08-19T08:28:20;7.15;;;5.90;;
46365;SDS011;32073;49.166;8.076;2022-08-19T08:32:21;5.28;;;4.78;;
46365;SDS011;32073;49.166;8.076;2022-08-19T08:36:21;6.05;;;5.45;;
46365;SDS011;32073;49.166;8.076;2022-08-19T08:53:31;5.97;;;5.38;;
46365;SDS011;32073;49.166;8.076;2022-08-19T08:57:35;5.45;;;4.95;;
46365;SDS011;32073;49.166;8.076;2022-08-19T09:14:38;5.93;;;5.33;;
46365;SDS011;32073;49.166;8.076;2022-08-19T09:18:58;5.15;;;4.63;;
46365;SDS011;32073;49.166;8.076;2022-08-19T09:23:03;10.52;;;6.90;;
46365;SDS011;32073;49.166;8.076;2022-08-19T09:27:04;6.22;;;5.63;;
46365;SDS011;32073;49.166;8.076;2022-08-19T09:31:05;4.68;;;4.07;;
46365;SDS011;32073;49.166;8.076;2022-08-19T09:35:05;6.05;;;4.70;;
46365;SDS011;32073;49.166;8.076;2022-08-19T09:39:06;5.18;;;4.68;;
46365;SDS011;32073;49.166;8.076;2022-08-19T09:43:07;5.32;;;4.82;;
46365;SDS011;32073;49.166;8.076;2022-08-19T09:47:11;6.28;;;5.20;;
46365;SDS011;32073;49.166;8.076;2022-08-19T09:51:15;4.30;;;3.90;;
46365;SDS011;32073;49.166;8.076;2022-08-19T09:55:19;4.10;;;3.80;;
46365;SDS011;32073;49.166;8.076;2022-08-19T09:59:20;5.70;;;4.22;;
46365;SDS011;32073;49.166;8.076;2022-08-19T10:03:21;4.43;;;4.03;;
46365;SDS011;32073;49.166;8.076;2022-08-19T10:07:22;4.25;;;3.85;;
46365;SDS011;32073;49.166;8.076;2022-08-19T10:11:24;4.00;;;3.60;;
46365;SDS011;32073;49.166;8.076;2022-08-19T10:15:26;5.53;;;4.72;;
46365;SDS011;32073;49.166;8.076;2022-08-19T10:19:26;4.53;;;4.13;;
46365;SDS011;32073;49.166;8.076;2022-08-19T10:23:32;4.95;;;4.25;;
46365;SDS011;32073;49.166;8.076;2022-08-19T10:27:35;4.38;;;3.65;;
46365;SDS011;32073;49.166;8.076;2022-08-19T10:31:37;3.70;;;3.28;;
46365;SDS011;32073;49.166;8.076;2022-08-19T10:35:38;4.10;;;3.40;;
46365;SDS011;32073;49.166;8.076;2022-08-19T10:39:39;3.80;;;3.17;;
46365;SDS011;32073;49.166;8.076;2022-08-19T10:43:40;3.38;;;3.08;;
46365;SDS011;32073;49.166;8.076;2022-08-19T10:47:41;4.07;;;3.40;;
46365;SDS011;32073;49.166;8.076;2022-08-19T10:51:42;4.00;;;3.70;;
46365;SDS011;32073;49.166;8.076;2022-08-19T10:56:01;4.10;;;3.55;;
46365;SDS011;32073;49.166;8.076;2022-08-19T11:00:21;4.85;;;3.97;;
46365;SDS011;32073;49.166;8.076;2022-08-19T11:04:23;4.15;;;3.75;;
46365;SDS011;32073;49.166;8.076;2022-08-19T11:08:24;4.05;;;3.75;;
46365;SDS011;32073;49.166;8.076;2022-08-19T11:12:26;4.40;;;4.10;;
46365;SDS011;32073;49.166;8.076;2022-08-19T11:16:27;3.55;;;3.25;;
46365;SDS011;32073;49.166;8.076;2022-08-19T11:20:29;2.95;;;2.60;;
46365;SDS011;32073;49.166;8.076;2022-08-19T11:24:31;3.38;;;2.50;;
46365;SDS011;32073;49.166;8.076;2022-08-19T11:28:32;3.72;;;2.67;;
46365;SDS011;32073;49.166;8.076;2022-08-19T11:32:33;3.15;;;2.80;;
46365;SDS011;32073;49.166;8.076;2022-08-19T11:36:36;2.90;;;2.70;;
46365;SDS011;32073;49.166;8.076;2022-08-19T11:40:40;2.67;;;2.42;;
46365;SDS011;32073;49.166;8.076;2022-08-19T11:44:42;2.22;;;2.03;;
46365;SDS011;32073;49.166;8.076;2022-08-19T11:48:42;2.78;;;2.33;;
46365;SDS011;32073;49.166;8.076;2022-08-19T11:52:44;2.10;;;2.00;;
46365;SDS011;32073;49.166;8.076;2022-08-19T11:56:45;2.38;;;1.85;;
46365;SDS011;32073;49.166;8.076;2022-08-19T12:00:47;3.00;;;2.30;;
46365;SDS011;32073;49.166;8.076;2022-08-19T12:04:48;2.45;;;2.15;;
46365;SDS011;32073;49.166;8.076;2022-08-19T12:08:49;1.70;;;1.60;;
46365;SDS011;32073;49.166;8.076;2022-08-19T12:12:50;2.55;;;2.10;;
46365;SDS011;32073;49.166;8.076;2022-08-19T12:16:50;2.05;;;1.85;;
46365;SDS011;32073;49.166;8.076;2022-08-19T12:20:52;2.17;;;2.00;;
46365;SDS011;32073;49.166;8.076;2022-08-19T12:24:56;2.60;;;2.40;;
46365;SDS011;32073;49.166;8.076;2022-08-19T12:28:58;2.83;;;2.38;;
46365;SDS011;32073;49.166;8.076;2022-08-19T12:32:59;2.60;;;2.40;;
46365;SDS011;32073;49.166;8.076;2022-08-19T12:37:01;2.50;;;2.30;;
46365;SDS011;32073;49.166;8.076;2022-08-19T12:41:05;2.63;;;2.40;;
46365;SDS011;32073;49.166;8.076;2022-08-19T12:45:09;2.63;;;2.42;;
46365;SDS011;32073;49.166;8.076;2022-08-19T12:49:11;3.22;;;2.40;;
46365;SDS011;32073;49.166;8.076;2022-08-19T12:53:12;2.83;;;2.63;;
46365;SDS011;32073;49.166;8.076;2022-08-19T12:57:14;3.00;;;2.70;;
46365;SDS011;32073;49.166;8.076;2022-08-19T13:01:15;3.55;;;2.60;;
46365;SDS011;32073;49.166;8.076;2022-08-19T13:05:18;2.58;;;2.38;;
46365;SDS011;32073;49.166;8.076;2022-08-19T13:09:23;5.82;;;2.50;;
46365;SDS011;32073;49.166;8.076;2022-08-19T13:13:24;2.70;;;2.38;;
46365;SDS011;32073;49.166;8.076;2022-08-19T13:17:26;3.10;;;2.47;;
46365;SDS011;32073;49.166;8.076;2022-08-19T13:21:27;2.42;;;2.22;;
46365;SDS011;32073;49.166;8.076;2022-08-19T13:25:29;2.90;;;2.33;;
46365;SDS011;32073;49.166;8.076;2022-08-19T13:29:31;2.63;;;2.33;;
46365;SDS011;32073;49.166;8.076;2022-08-19T13:33:50;2.60;;;2.40;;
46365;SDS011;32073;49.166;8.076;2022-08-19T13:37:50;2.42;;;2.22;;
46365;SDS011;32073;49.166;8.076;2022-08-19T13:41:51;2.85;;;2.50;;
46365;SDS011;32073;49.166;8.076;2022-08-19T13:45:53;2.50;;;2.30;;
46365;SDS011;32073;49.166;8.076;2022-08-19T13:49:58;3.40;;;2.40;;
46365;SDS011;32073;49.166;8.076;2022-08-19T13:53:59;2.30;;;2.10;;
46365;SDS011;32073;49.166;8.076;2022-08-19T13:57:59;2.90;;;2.63;;
46365;SDS011;32073;49.166;8.076;2022-08-19T14:02:01;3.60;;;2.25;;
46365;SDS011;32073;49.166;8.076;2022-08-19T14:06:02;2.67;;;2.47;;
46365;SDS011;32073;49.166;8.076;2022-08-19T14:10:04;2.67;;;2.40;;
46365;SDS011;32073;49.166;8.076;2022-08-19T14:14:07;2.80;;;2.60;;
46365;SDS011;32073;49.166;8.076;2022-08-19T14:18:08;2.20;;;2.00;;
46365;SDS011;32073;49.166;8.076;2022-08-19T14:22:08;2.50;;;2.28;;
46365;SDS011;32073;49.166;8.076;2022-08-19T14:26:10;2.75;;;2.08;;
46365;SDS011;32073;49.166;8.076;2022-08-19T14:30:15;2.53;;;2.33;;
46365;SDS011;32073;49.166;8.076;2022-08-19T14:34:19;3.15;;;2.33;;
46365;SDS011;32073;49.166;8.076;2022-08-19T14:38:22;2.75;;;2.25;;
46365;SDS011;32073;49.166;8.076;2022-08-19T14:42:22;2.78;;;2.25;;
46365;SDS011;32073;49.166;8.076;2022-08-19T14:46:24;2.83;;;2.25;;
46365;SDS011;32073;49.166;8.076;2022-08-19T14:50:27;5.35;;;2.55;;
46365;SDS011;32073;49.166;8.076;2022-08-19T14:54:29;3.90;;;2.20;;
46365;SDS011;32073;49.166;8.076;2022-08-19T14:58:30;2.10;;;2.00;;
46365;SDS011;32073;49.166;8.076;2022-08-19T15:02:30;2.30;;;2.10;;
46365;SDS011;32073;49.166;8.076;2022-08-19T15:06:33;2.08;;;1.90;;
46365;SDS011;32073;49.166;8.076;2022-08-19T15:10:34;2.30;;;2.05;;
46365;SDS011;32073;49.166;8.076;2022-08-19T15:14:35;2.22;;;2.03;;
46365;SDS011;32073;49.166;8.076;2022-08-19T15:18:37;3.58;;;2.00;;
46365;SDS011;32073;49.166;8.076;2022-08-19T15:22:38;2.15;;;1.95;;
46365;SDS011;32073;49.166;8.076;2022-08-19T15:26:41;3.45;;;2.20;;
46365;SDS011;32073;49.166;8.076;2022-08-19T15:30:42;2.47;;;2.28;;
46365;SDS011;32073;49.166;8.076;2022-08-19T15:34:43;2.55;;;2.35;;
46365;SDS011;32073;49.166;8.076;2022-08-19T15:38:44;3.10;;;2.55;;
46365;SDS011;32073;49.166;8.076;2022-08-19T15:42:45;3.30;;;3.00;;
46365;SDS011;32073;49.166;8.076;2022-08-19T15:46:48;4.32;;;3.40;;
46365;SDS011;32073;49.166;8.076;2022-08-19T15:50:49;3.40;;;3.10;;
46365;SDS011;32073;49.166;8.076;2022-08-19T15:54:50;3.85;;;3.55;;
46365;SDS011;32073;49.166;8.076;2022-08-19T15:58:50;4.63;;;3.97;;
46365;SDS011;32073;49.166;8.076;2022-08-19T16:03:11;3.85;;;3.17;;
46365;SDS011;32073;49.166;8.076;2022-08-19T16:07:32;4.00;;;3.70;;
46365;SDS011;32073;49.166;8.076;2022-08-19T16:11:33;3.80;;;3.50;;
46365;SDS011;32073;49.166;8.076;2022-08-19T16:15:35;4.90;;;3.90;;
46365;SDS011;32073;49.166;8.076;2022-08-19T16:19:36;4.07;;;3.65;;
46365;SDS011;32073;49.166;8.076;2022-08-19T16:23:37;5.18;;;3.85;;
46365;SDS011;32073;49.166;8.076;2022-08-19T16:27:38;4.47;;;3.47;;
46365;SDS011;32073;49.166;8.076;2022-08-19T16:31:41;5.30;;;3.80;;
46365;SDS011;32073;49.166;8.076;2022-08-19T16:35:43;4.18;;;3.58;;
46365;SDS011;32073;49.166;8.076;2022-08-19T16:39:44;4.10;;;3.70;;
46365;SDS011;32073;49.166;8.076;2022-08-19T16:43:45;4.18;;;3.80;;
46365;SDS011;32073;49.166;8.076;2022-08-19T16:47:46;3.72;;;3.33;;
46365;SDS011;32073;49.166;8.076;2022-08-19T16:51:47;4.10;;;3.53;;
46365;SDS011;32073;49.166;8.076;2022-08-19T16:55:49;3.90;;;3.50;;
46365;SDS011;32073;49.166;8.076;2022-08-19T16:59:52;3.50;;;3.20;;
46365;SDS011;32073;49.166;8.076;2022-08-19T17:03:54;4.65;;;3.30;;
46365;SDS011;32073;49.166;8.076;2022-08-19T17:07:55;3.50;;;3.20;;
46365;SDS011;32073;49.166;8.076;2022-08-19T17:11:55;3.35;;;2.78;;
46365;SDS011;32073;49.166;8.076;2022-08-19T17:15:56;2.92;;;2.72;;
46365;SDS011;32073;49.166;8.076;2022-08-19T17:19:57;2.90;;;2.67;;
46365;SDS011;32073;49.166;8.076;2022-08-19T17:24:01;3.10;;;2.80;;
46365;SDS011;32073;49.166;8.076;2022-08-19T17:28:15;2.80;;;2.60;;
46365;SDS011;32073;49.166;8.076;2022-08-19T17:32:20;3.08;;;2.78;;
46365;SDS011;32073;49.166;8.076;2022-08-19T17:36:21;2.90;;;2.58;;
46365;SDS011;32073;49.166;8.076;2022-08-19T17:40:23;2.42;;;2.13;;
46365;SDS011;32073;49.166;8.076;2022-08-19T17:44:24;2.33;;;2.13;;
46365;SDS011;32073;49.166;8.076;2022-08-19T17:48:25;3.35;;;2.38;;
46365;SDS011;32073;49.166;8.076;2022-08-19T17:52:26;3.08;;;2.08;;
46365;SDS011;32073;49.166;8.076;2022-08-19T17:56:26;2.40;;;2.20;;
46365;SDS011;32073;49.166;8.076;2022-08-19T18:00:27;2.67;;;2.05;;
46365;SDS011;32073;49.166;8.076;2022-08-19T18:04:28;2.25;;;1.98;;
46365;SDS011;32073;49.166;8.076;2022-08-19T18:08:29;2.20;;;1.98;;
46365;SDS011;32073;49.166;8.076;2022-08-19T18:12:29;3.47;;;2.20;;
46365;SDS011;32073;49.166;8.076;2022-08-19T18:16:30;2.40;;;2.20;;
46365;SDS011;32073;49.166;8.076;2022-08-19T18:20:31;2.47;;;2.28;;
46365;SDS011;32073;49.166;8.076;2022-08-19T18:24:32;2.45;;;2.00;;
46365;SDS011;32073;49.166;8.076;2022-08-19T18:28:38;2.50;;;2.28;;
46365;SDS011;32073;49.166;8.076;2022-08-19T18:32:39;3.63;;;2.47;;
46365;SDS011;32073;49.166;8.076;2022-08-19T18:36:41;2.65;;;2.30;;
46365;SDS011;32073;49.166;8.076;2022-08-19T18:40:42;2.67;;;2.47;;
46365;SDS011;32073;49.166;8.076;2022-08-19T18:45:02;6.20;;;2.60;;
46365;SDS011;32073;49.166;8.076;2022-08-19T18:49:24;2.58;;;2.08;;
46365;SDS011;32073;49.166;8.076;2022-08-19T18:53:29;3.22;;;2.55;;
46365;SDS011;32073;49.166;8.076;2022-08-19T18:57:32;3.40;;;3.00;;
46365;SDS011;32073;49.166;8.076;2022-08-19T19:01:35;10.27;;;3.00;;
46365;SDS011;32073;49.166;8.076;2022-08-19T19:05:38;3.08;;;2.63;;
46365;SDS011;32073;49.166;8.076;2022-08-19T19:09:39;2.65;;;2.45;;
46365;SDS011;32073;49.166;8.076;2022-08-19T19:13:39;2.80;;;2.53;;
46365;SDS011;32073;49.166;8.076;2022-08-19T19:17:40;4.43;;;2.10;;
46365;SDS011;32073;49.166;8.076;2022-08-19T19:21:41;2.60;;;2.40;;
46365;SDS011;32073;49.166;8.076;2022-08-19T19:25:48;2.58;;;2.20;;
46365;SDS011;32073;49.166;8.076;2022-08-19T19:29:49;2.08;;;1.88;;
46365;SDS011;32073;49.166;8.076;2022-08-19T19:33:52;2.70;;;2.20;;
46365;SDS011;32073;49.166;8.076;2022-08-19T19:37:54;1.70;;;1.60;;
46365;SDS011;32073;49.166;8.076;2022-08-19T19:41:56;1.60;;;1.50;;
46365;SDS011;32073;49.166;8.076;2022-08-19T19:45:57;2.22;;;1.60;;
46365;SDS011;32073;49.166;8.076;2022-08-19T19:49:58;1.92;;;1.67;;
46365;SDS011;32073;49.166;8.076;2022-08-19T19:53:58;2.00;;;1.55;;
46365;SDS011;32073;49.166;8.076;2022-08-19T19:58:00;2.63;;;1.80;;
46365;SDS011;32073;49.166;8.076;2022-08-19T20:02:03;1.95;;;1.70;;
46365;SDS011;32073;49.166;8.076;2022-08-19T20:06:05;1.52;;;1.42;;
46365;SDS011;32073;49.166;8.076;2022-08-19T20:10:10;2.42;;;1.23;;
46365;SDS011;32073;49.166;8.076;2022-08-19T20:14:13;1.10;;;1.00;;
46365;SDS011;32073;49.166;8.076;2022-08-19T20:18:26;1.17;;;0.95;;
46365;SDS011;32073;49.166;8.076;2022-08-19T20:22:27;1.42;;;0.75;;
46365;SDS011;32073;49.166;8.076;2022-08-19T20:26:28;3.53;;;0.90;;
46365;SDS011;32073;49.166;8.076;2022-08-19T20:30:29;1.90;;;0.80;;
46365;SDS011;32073;49.166;8.076;2022-08-19T20:34:30;0.70;;;0.70;;
46365;SDS011;32073;49.166;8.076;2022-08-19T20:38:32;0.88;;;0.70;;
46365;SDS011;32073;49.166;8.076;2022-08-19T20:42:34;2.20;;;0.65;;
46365;SDS011;32073;49.166;8.076;2022-08-19T20:46:39;0.90;;;0.60;;
46365;SDS011;32073;49.166;8.076;2022-08-19T20:50:40;1.33;;;0.73;;
46365;SDS011;32073;49.166;8.076;2022-08-19T20:54:40;0.45;;;0.43;;
46365;SDS011;32073;49.166;8.076;2022-08-19T20:58:41;0.63;;;0.63;;
46365;SDS011;32073;49.166;8.076;2022-08-19T21:02:42;1.00;;;0.80;;
46365;SDS011;32073;49.166;8.076;2022-08-19T21:06:43;0.63;;;0.50;;
46365;SDS011;32073;49.166;8.076;2022-08-19T21:10:44;0.75;;;0.60;;
46365;SDS011;32073;49.166;8.076;2022-08-19T21:14:46;0.80;;;0.55;;
46365;SDS011;32073;49.166;8.076;2022-08-19T21:18:47;1.13;;;0.52;;
46365;SDS011;32073;49.166;8.076;2022-08-19T21:22:48;0.45;;;0.40;;
46365;SDS011;32073;49.166;8.076;2022-08-19T21:26:49;2.45;;;0.50;;
46365;SDS011;32073;49.166;8.076;2022-08-19T21:30:49;1.70;;;0.50;;
46365;SDS011;32073;49.166;8.076;2022-08-19T21:34:52;1.67;;;0.40;;
46365;SDS011;32073;49.166;8.076;2022-08-19T21:38:53;1.02;;;0.52;;
46365;SDS011;32073;49.166;8.076;2022-08-19T21:42:54;2.15;;;0.40;;
46365;SDS011;32073;49.166;8.076;2022-08-19T21:46:55;0.30;;;0.30;;
46365;SDS011;32073;49.166;8.076;2022-08-19T21:50:55;0.75;;;0.35;;
46365;SDS011;32073;49.166;8.076;2022-08-19T21:54:56;2.95;;;0.35;;
46365;SDS011;32073;49.166;8.076;2022-08-19T21:58:57;1.20;;;0.40;;
46365;SDS011;32073;49.166;8.076;2022-08-19T22:02:57;0.35;;;0.30;;
46365;SDS011;32073;49.166;8.076;2022-08-19T22:06:58;0.50;;;0.50;;
46365;SDS011;32073;49.166;8.076;2022-08-19T22:11:00;0.63;;;0.40;;
46365;SDS011;32073;49.166;8.076;2022-08-19T22:15:02;0.40;;;0.40;;
46365;SDS011;32073;49.166;8.076;2022-08-19T22:19:07;0.57;;;0.25;;
46365;SDS011;32073;49.166;8.076;2022-08-19T22:23:08;0.65;;;0.40;;
46365;SDS011;32073;49.166;8.076;2022-08-19T22:27:10;0.38;;;0.38;;
46365;SDS011;32073;49.166;8.076;2022-08-19T22:31:10;0.40;;;0.40;;
46365;SDS011;32073;49.166;8.076;2022-08-19T22:35:11;0.43;;;0.20;;
46365;SDS011;32073;49.166;8.076;2022-08-19T22:39:15;1.23;;;0.38;;
46365;SDS011;32073;49.166;8.076;2022-08-19T22:43:18;0.40;;;0.40;;
46365;SDS011;32073;49.166;8.076;2022-08-19T22:47:23;1.20;;;0.60;;
46365;SDS011;32073;49.166;8.076;2022-08-19T22:51:25;0.38;;;0.38;;
46365;SDS011;32073;49.166;8.076;2022-08-19T22:55:44;0.30;;;0.30;;
46365;SDS011;32073;49.166;8.076;2022-08-19T22:59:45;0.25;;;0.22;;
46365;SDS011;32073;49.166;8.076;2022-08-19T23:03:48;0.25;;;0.25;;
46365;SDS011;32073;49.166;8.076;2022-08-19T23:07:49;0.20;;;0.20;;
46365;SDS011;32073;49.166;8.076;2022-08-19T23:11:50;0.20;;;0.20;;
46365;SDS011;32073;49.166;8.076;2022-08-19T23:15:51;0.70;;;0.35;;
46365;SDS011;32073;49.166;8.076;2022-08-19T23:19:52;0.40;;;0.40;;
46365;SDS011;32073;49.166;8.076;2022-08-19T23:23:52;3.70;;;0.32;;
46365;SDS011;32073;49.166;8.076;2022-08-19T23:27:53;0.75;;;0.45;;
46365;SDS011;32073;49.166;8.076;2022-08-19T23:32:13;0.47;;;0.40;;
46365;SDS011;32073;49.166;8.076;2022-08-19T23:36:14;1.17;;;0.40;;
46365;SDS011;32073;49.166;8.076;2022-08-19T23:40:17;0.30;;;0.30;;
46365;SDS011;32073;49.166;8.076;2022-08-19T23:44:21;0.90;;;0.70;;
46365;SDS011;32073;49.166;8.076;2022-08-19T23:48:21;0.70;;;0.30;;
46365;SDS011;32073;49.166;8.076;2022-08-19T23:52:22;0.90;;;0.45;;
46365;SDS011;32073;49.166;8.076;2022-08-19T23:56:23;0.40;;;0.40;;
